createdAt,value
2023-03-01T00:01:34.355Z,47.14
2023-03-01T00:04:01.933Z,47.84
2023-03-01T00:06:30.331Z,47.60
2023-03-01T00:08:58.171Z,47.60
2023-03-01T00:11:28.824Z,47.26
2023-03-01T00:13:59.018Z,47.00
2023-03-01T00:16:35.922Z,46.79
2023-03-01T00:19:04.153Z,47.29
2023-03-01T00:21:31.621Z,47.22
2023-03-01T00:23:59.734Z,47.27
2023-03-01T00:26:28.195Z,47.68
2023-03-01T00:28:58.477Z,47.62
2023-03-01T00:31:31.578Z,47.81
2023-03-01T00:34:01.915Z,47.54
2023-03-01T00:36:32.491Z,47.54
2023-03-01T00:39:00.895Z,47.09
2023-03-01T00:41:28.879Z,47.90
2023-03-01T00:44:06.219Z,47.46
2023-03-01T00:46:37.652Z,47.51
2023-03-01T00:49:05.919Z,47.87
2023-03-01T00:51:34.072Z,48.29
2023-03-01T00:54:03.457Z,48.20
2023-03-01T00:56:32.213Z,48.03
2023-03-01T00:59:00.088Z,47.83
2023-03-01T01:01:33.341Z,48.33
2023-03-01T01:04:04.505Z,47.44
2023-03-01T01:06:36.554Z,47.73
2023-03-01T01:09:06.626Z,48.04
2023-03-01T01:11:36.587Z,48.18
2023-03-01T01:14:05.463Z,47.92
2023-03-01T01:16:33.419Z,48.52
2023-03-01T01:19:02.115Z,48.15
2023-03-01T01:21:31.047Z,47.92
2023-03-01T01:23:59.588Z,48.19
2023-03-01T01:26:30.687Z,47.88
2023-03-01T01:28:59.368Z,48.84
2023-03-01T01:31:29.450Z,48.90
2023-03-01T01:33:58.940Z,48.25
2023-03-01T01:36:26.466Z,48.52
2023-03-01T01:38:54.628Z,48.59
2023-03-01T01:41:23.057Z,47.76
2023-03-01T01:44:21.465Z,48.25
2023-03-01T01:47:00.122Z,47.73
2023-03-01T01:49:43.202Z,47.00
2023-03-01T01:52:22.146Z,47.94
2023-03-01T01:54:49.598Z,47.66
2023-03-01T01:57:22.700Z,47.38
2023-03-01T01:59:56.185Z,47.76
2023-03-01T02:02:24.610Z,47.09
2023-03-01T02:05:04.904Z,47.29
2023-03-01T02:07:32.684Z,47.43
2023-03-01T02:10:00.327Z,46.70
2023-03-01T02:12:28.177Z,48.33
2023-03-01T02:14:56.206Z,47.66
2023-03-01T02:17:24.152Z,47.38
2023-03-01T02:20:21.847Z,47.65
2023-03-01T02:22:51.435Z,49.34
2023-03-01T02:25:29.519Z,48.45
2023-03-01T02:28:04.612Z,47.22
2023-03-01T02:30:34.112Z,48.54
2023-03-01T02:33:04.207Z,50.20
2023-03-01T02:35:35.594Z,49.00
2023-03-01T02:38:04.765Z,49.76
2023-03-01T02:40:34.781Z,48.12
2023-03-01T02:43:09.502Z,48.94
2023-03-01T02:45:36.887Z,47.44
2023-03-01T02:48:04.804Z,49.07
2023-03-01T02:50:32.315Z,48.65
2023-03-01T02:53:34.298Z,48.64
2023-03-01T02:56:02.715Z,49.32
2023-03-01T02:58:30.440Z,50.34
2023-03-01T03:00:58.267Z,50.45
2023-03-01T03:03:27.269Z,50.21
2023-03-01T03:05:55.328Z,50.73
2023-03-01T03:08:25.553Z,51.27
2023-03-01T03:10:54.323Z,51.07
2023-03-01T03:13:23.377Z,51.78
2023-03-01T03:15:51.887Z,51.01
2023-03-01T03:18:20.124Z,50.59
2023-03-01T03:20:47.703Z,51.59
2023-03-01T03:23:15.388Z,50.84
2023-03-01T03:25:42.928Z,50.78
2023-03-01T03:28:10.993Z,50.79
2023-03-01T03:30:41.235Z,50.16
2023-03-01T03:33:12.966Z,50.90
2023-03-01T03:35:49.551Z,50.45
2023-03-01T03:38:20.472Z,50.39
2023-03-01T03:40:51.024Z,50.54
2023-03-01T03:43:21.309Z,51.36
2023-03-01T03:45:51.161Z,50.01
2023-03-01T03:48:19.791Z,50.20
2023-03-01T03:50:55.545Z,51.03
2023-03-01T03:53:26.351Z,49.42
2023-03-01T03:55:55.103Z,49.25
2023-03-01T03:58:24.443Z,48.82
2023-03-01T04:00:54.773Z,50.51
2023-03-01T04:03:22.494Z,49.73
2023-03-01T04:05:51.946Z,49.47
2023-03-01T04:08:22.397Z,51.39
2023-03-01T04:10:52.449Z,53.97
2023-03-01T04:13:24.212Z,54.36
2023-03-01T04:15:55.871Z,53.12
2023-03-01T04:18:26.839Z,51.41
2023-03-01T04:20:56.712Z,51.47
2023-03-01T04:23:24.559Z,51.19
2023-03-01T04:25:58.184Z,50.40
2023-03-01T04:28:35.554Z,49.82
2023-03-01T04:31:15.578Z,50.42
2023-03-01T04:33:48.421Z,50.36
2023-03-01T04:36:17.887Z,50.47
2023-03-01T04:38:49.244Z,51.13
2023-03-01T04:41:22.027Z,51.45
2023-03-01T04:43:50.122Z,51.10
2023-03-01T04:46:20.836Z,51.14
2023-03-01T04:48:48.664Z,51.62
2023-03-01T04:51:17.151Z,51.27
2023-03-01T04:53:45.525Z,51.14
2023-03-01T04:56:17.253Z,50.88
2023-03-01T04:58:45.599Z,51.37
2023-03-01T05:01:18.863Z,49.83
2023-03-01T05:03:48.609Z,50.08
2023-03-01T05:06:18.181Z,50.55
2023-03-01T05:08:46.351Z,50.35
2023-03-01T05:11:14.391Z,50.09
2023-03-01T05:13:42.946Z,50.62
2023-03-01T05:16:12.878Z,50.68
2023-03-01T05:18:41.749Z,49.71
2023-03-01T05:21:17.487Z,50.00
2023-03-01T05:23:46.358Z,49.43
2023-03-01T05:26:30.484Z,49.28
2023-03-01T05:29:00.640Z,49.15
2023-03-01T05:31:29.294Z,48.87
2023-03-01T05:33:57.101Z,48.07
2023-03-01T05:36:24.607Z,48.07
2023-03-01T05:38:52.361Z,47.62
2023-03-01T05:41:19.914Z,47.67
2023-03-01T05:43:47.388Z,48.32
2023-03-01T05:46:16.559Z,48.44
2023-03-01T05:48:44.962Z,48.58
2023-03-01T05:51:13.354Z,49.08
2023-03-01T05:53:40.978Z,49.32
2023-03-01T05:56:09.008Z,49.78
2023-03-01T05:58:36.599Z,49.34
2023-03-01T06:01:04.197Z,48.53
2023-03-01T06:03:31.765Z,47.68
2023-03-01T06:05:59.974Z,48.81
2023-03-01T06:08:28.660Z,49.05
2023-03-01T06:10:56.402Z,49.43
2023-03-01T06:13:25.004Z,49.75
2023-03-01T06:15:53.267Z,49.64
2023-03-01T06:18:21.084Z,52.01
2023-03-01T06:20:54.966Z,50.45
2023-03-01T06:23:22.515Z,50.58
2023-03-01T06:25:50.659Z,49.76
2023-03-01T06:28:18.224Z,49.84
2023-03-01T06:30:46.300Z,48.22
2023-03-01T06:33:14.405Z,48.62
2023-03-01T06:35:41.958Z,48.07
2023-03-01T06:38:09.543Z,48.21
2023-03-01T06:40:37.041Z,47.53
2023-03-01T06:43:04.782Z,47.74
2023-03-01T06:45:32.367Z,47.75
2023-03-01T06:48:07.420Z,47.50
2023-03-01T06:50:36.928Z,47.04
2023-03-01T06:53:04.734Z,46.28
2023-03-01T06:55:32.519Z,47.38
2023-03-01T06:58:02.078Z,51.16
2023-03-01T07:00:30.439Z,49.44
2023-03-01T07:03:01.042Z,48.77
2023-03-01T07:05:29.319Z,50.78
2023-03-01T07:07:57.607Z,50.79
2023-03-01T07:10:25.661Z,48.05
2023-03-01T07:12:57.040Z,47.35
2023-03-01T07:15:24.881Z,46.71
2023-03-01T07:17:52.555Z,46.70
2023-03-01T07:20:26.735Z,46.26
2023-03-01T07:22:56.089Z,45.92
2023-03-01T07:25:23.981Z,45.49
2023-03-01T07:27:52.967Z,45.63
2023-03-01T07:30:21.814Z,45.45
2023-03-01T07:32:49.795Z,45.04
2023-03-01T07:35:17.556Z,44.87
2023-03-01T07:37:45.469Z,45.41
2023-03-01T07:40:13.900Z,45.82
2023-03-01T07:42:41.590Z,44.74
2023-03-01T07:45:09.440Z,44.89
2023-03-01T07:47:37.335Z,44.74
2023-03-01T07:50:05.615Z,45.16
2023-03-01T07:52:33.533Z,45.20
2023-03-01T07:55:01.224Z,45.10
2023-03-01T07:57:30.599Z,45.45
2023-03-01T07:59:58.151Z,45.29
2023-03-01T08:02:25.652Z,45.74
2023-03-01T08:04:53.269Z,45.84
2023-03-01T08:07:20.830Z,45.58
2023-03-01T08:09:48.521Z,46.12
2023-03-01T08:12:17.639Z,45.36
2023-03-01T08:14:45.385Z,45.44
2023-03-01T08:17:15.576Z,46.43
2023-03-01T08:19:44.546Z,45.95
2023-03-01T08:22:12.330Z,46.39
2023-03-01T08:24:39.932Z,47.30
2023-03-01T08:27:07.477Z,49.26
2023-03-01T08:29:35.362Z,50.12
2023-03-01T08:32:03.198Z,49.53
2023-03-01T08:34:32.455Z,49.00
2023-03-01T08:36:59.988Z,48.09
2023-03-01T08:39:27.516Z,49.45
2023-03-01T08:41:55.337Z,49.31
2023-03-01T08:44:22.964Z,50.26
2023-03-01T08:46:53.500Z,48.01
2023-03-01T08:49:21.992Z,47.83
2023-03-01T08:51:49.997Z,47.38
2023-03-01T08:54:23.070Z,49.09
2023-03-01T08:56:51.044Z,51.19
2023-03-01T08:59:18.997Z,51.87
2023-03-01T09:01:46.743Z,53.03
2023-03-01T09:04:16.201Z,51.59
2023-03-01T09:06:44.493Z,50.13
2023-03-01T09:09:17.461Z,51.09
2023-03-01T09:11:47.674Z,49.51
2023-03-01T09:14:15.632Z,49.14
2023-03-01T09:16:43.948Z,48.62
2023-03-01T09:19:12.435Z,47.55
2023-03-01T09:21:41.250Z,47.64
2023-03-01T09:24:15.996Z,47.55
2023-03-01T09:26:48.857Z,46.70
2023-03-01T09:29:18.280Z,46.86
2023-03-01T09:31:45.948Z,47.07
2023-03-01T09:34:16.660Z,48.01
2023-03-01T09:36:44.403Z,46.23
2023-03-01T09:39:11.932Z,44.50
2023-03-01T09:42:03.658Z,45.08
2023-03-01T09:44:53.291Z,45.24
2023-03-01T09:47:28.040Z,47.38
2023-03-01T09:50:20.018Z,47.46
2023-03-01T09:53:06.122Z,46.62
2023-03-01T09:55:40.855Z,46.46
2023-03-01T09:58:32.212Z,47.44
2023-03-01T10:01:11.269Z,49.80
2023-03-01T10:03:46.664Z,49.53
2023-03-01T10:06:34.033Z,50.65
2023-03-01T10:09:17.378Z,49.36
2023-03-01T10:11:50.108Z,47.21
2023-03-01T10:14:38.513Z,47.05
2023-03-01T10:17:14.385Z,45.45
2023-03-01T10:19:45.075Z,45.73
2023-03-01T10:22:22.667Z,46.13
2023-03-01T10:24:53.271Z,45.94
2023-03-01T10:27:25.218Z,46.91
2023-03-01T10:30:05.390Z,48.72
2023-03-01T10:32:33.359Z,48.70
2023-03-01T10:35:00.914Z,48.49
2023-03-01T10:37:31.043Z,49.37
2023-03-01T10:40:09.446Z,49.79
2023-03-01T10:42:39.480Z,48.51
2023-03-01T10:45:28.477Z,47.49
2023-03-01T10:48:08.136Z,50.32
2023-03-01T10:50:37.650Z,47.60
2023-03-01T10:53:06.518Z,46.99
2023-03-01T10:55:39.909Z,46.43
2023-03-01T10:58:27.669Z,46.81
2023-03-01T11:01:01.842Z,49.51
2023-03-01T11:03:36.057Z,48.97
2023-03-01T11:06:12.577Z,48.52
2023-03-01T11:08:48.679Z,48.92
2023-03-01T11:11:30.823Z,47.61
2023-03-01T11:14:27.594Z,49.43
2023-03-01T11:17:06.678Z,46.87
2023-03-01T11:19:34.796Z,45.41
2023-03-01T11:22:17.987Z,47.35
2023-03-01T11:24:57.343Z,48.17
2023-03-01T11:27:34.476Z,50.04
2023-03-01T11:30:09.489Z,46.66
2023-03-01T11:33:00.164Z,46.69
2023-03-01T11:35:30.260Z,47.57
2023-03-01T11:38:24.834Z,48.11
2023-03-01T11:41:19.757Z,48.17
2023-03-01T11:43:56.310Z,53.66
2023-03-01T11:46:53.983Z,49.69
2023-03-01T11:50:00.336Z,48.92
2023-03-01T11:52:56.874Z,48.60
2023-03-01T11:56:02.139Z,51.32
2023-03-01T11:59:01.068Z,51.23
2023-03-01T12:01:56.575Z,54.48
2023-03-01T12:04:42.682Z,52.35
2023-03-01T12:07:29.143Z,53.97
2023-03-01T12:10:44.307Z,52.93
2023-03-01T12:13:39.698Z,50.82
2023-03-01T12:16:38.430Z,52.36
2023-03-01T12:19:33.470Z,54.19
2023-03-01T12:22:27.513Z,54.79
2023-03-01T12:25:23.461Z,57.92
2023-03-01T12:28:21.204Z,56.58
2023-03-01T12:31:11.446Z,57.83
2023-03-01T12:34:03.577Z,57.88
2023-03-01T12:37:03.542Z,54.42
2023-03-01T12:39:51.140Z,52.46
2023-03-01T12:42:44.367Z,51.24
2023-03-01T12:45:36.641Z,50.55
2023-03-01T12:48:19.405Z,49.79
2023-03-01T12:50:55.386Z,48.10
2023-03-01T12:53:26.056Z,47.69
2023-03-01T12:55:57.472Z,47.05
2023-03-01T12:58:56.814Z,48.14
2023-03-01T13:01:42.612Z,48.57
2023-03-01T13:04:19.999Z,49.11
2023-03-01T13:07:26.688Z,48.22
2023-03-01T13:10:02.877Z,46.91
2023-03-01T13:12:51.638Z,47.42
2023-03-01T13:15:25.333Z,46.95
2023-03-01T13:18:00.676Z,46.02
2023-03-01T13:20:54.711Z,45.87
2023-03-01T13:23:22.585Z,44.55
2023-03-01T13:26:12.922Z,45.48
2023-03-01T13:28:46.369Z,44.58
2023-03-01T13:31:16.942Z,45.10
2023-03-01T13:33:50.728Z,44.99
2023-03-01T13:36:31.128Z,45.85
2023-03-01T13:39:01.730Z,44.63
2023-03-01T13:41:44.512Z,45.40
2023-03-01T13:44:21.269Z,44.53
2023-03-01T13:46:49.929Z,44.60
2023-03-01T13:49:24.255Z,45.67
2023-03-01T13:51:52.674Z,45.04
2023-03-01T13:54:30.690Z,45.91
2023-03-01T13:57:01.080Z,45.04
2023-03-01T13:59:30.659Z,44.55
2023-03-01T14:02:00.981Z,45.30
2023-03-01T14:04:37.079Z,45.36
2023-03-01T14:07:25.718Z,45.42
2023-03-01T14:09:56.496Z,45.15
2023-03-01T14:12:51.333Z,45.64
2023-03-01T14:15:36.136Z,45.54
2023-03-01T14:18:07.511Z,45.87
2023-03-01T14:20:41.442Z,45.41
2023-03-01T14:23:14.327Z,46.07
2023-03-01T14:25:58.594Z,45.29
2023-03-01T14:28:30.009Z,45.32
2023-03-01T14:30:59.875Z,45.41
2023-03-01T14:33:29.109Z,45.80
2023-03-01T14:36:08.658Z,46.37
2023-03-01T14:38:39.166Z,45.84
2023-03-01T14:41:20.224Z,47.01
2023-03-01T14:43:52.694Z,46.25
2023-03-01T14:46:37.864Z,47.73
2023-03-01T14:49:20.504Z,47.34
2023-03-01T14:52:06.695Z,47.13
2023-03-01T14:54:34.172Z,46.14
2023-03-01T14:57:02.671Z,46.24
2023-03-01T14:59:30.574Z,46.46
2023-03-01T15:01:59.881Z,46.86
2023-03-01T15:04:32.457Z,46.36
2023-03-01T15:07:07.923Z,46.35
2023-03-01T15:09:38.277Z,46.85
2023-03-01T15:12:30.880Z,47.54
2023-03-01T15:15:04.694Z,46.83
2023-03-01T15:17:40.804Z,46.87
2023-03-01T15:20:19.059Z,48.70
2023-03-01T15:22:50.040Z,47.15
2023-03-01T15:25:29.689Z,47.17
2023-03-01T15:28:00.905Z,47.49
2023-03-01T15:30:30.863Z,47.40
2023-03-01T15:33:20.763Z,47.93
2023-03-01T15:35:54.542Z,47.70
2023-03-01T15:38:39.724Z,48.46
2023-03-01T15:41:28.035Z,49.56
2023-03-01T15:43:57.030Z,48.03
2023-03-01T15:46:31.276Z,48.79
2023-03-01T15:49:21.531Z,49.39
2023-03-01T15:51:50.124Z,49.04
2023-03-01T15:54:24.041Z,50.31
2023-03-01T15:56:53.612Z,51.27
2023-03-01T15:59:23.464Z,50.77
2023-03-01T16:01:52.366Z,52.20
2023-03-01T16:04:28.394Z,51.83
2023-03-01T16:06:56.517Z,51.21
2023-03-01T16:09:25.484Z,50.26
2023-03-01T16:11:54.652Z,52.80
2023-03-01T16:14:23.608Z,55.18
2023-03-01T16:16:53.659Z,59.05
2023-03-01T16:19:30.423Z,58.60
2023-03-01T16:21:58.071Z,58.48
2023-03-01T16:24:31.456Z,62.21
2023-03-01T16:27:00.760Z,59.12
2023-03-01T16:29:31.682Z,63.98
2023-03-01T16:32:06.634Z,65.40
2023-03-01T16:34:34.546Z,62.68
2023-03-01T16:37:04.559Z,64.81
2023-03-01T16:39:36.227Z,66.46
2023-03-01T16:42:03.979Z,67.11
2023-03-01T16:44:31.653Z,65.00
2023-03-01T16:46:59.246Z,64.74
2023-03-01T16:49:26.752Z,62.83
2023-03-01T16:51:57.402Z,62.38
2023-03-01T16:54:24.935Z,63.75
2023-03-01T16:56:52.615Z,63.17
2023-03-01T16:59:31.753Z,62.07
2023-03-01T17:01:59.516Z,62.46
2023-03-01T17:04:27.306Z,60.54
2023-03-01T17:06:55.148Z,62.07
2023-03-01T17:09:23.383Z,61.61
2023-03-01T17:11:51.158Z,62.00
2023-03-01T17:14:18.930Z,61.36
2023-03-01T17:16:46.658Z,62.98
2023-03-01T17:19:18.898Z,63.95
2023-03-01T17:21:47.256Z,64.76
2023-03-01T17:24:15.124Z,63.07
2023-03-01T17:26:42.799Z,62.38
2023-03-01T17:29:10.563Z,65.00
2023-03-01T17:31:40.959Z,65.17
2023-03-01T17:34:09.583Z,62.56
2023-03-01T17:36:45.012Z,62.96
2023-03-01T17:39:12.662Z,63.43
2023-03-01T17:41:40.294Z,64.00
2023-03-01T17:44:07.866Z,63.90
2023-03-01T17:46:35.588Z,67.20
2023-03-01T17:49:04.035Z,70.07
2023-03-01T17:51:31.797Z,71.47
2023-03-01T17:53:59.675Z,73.57
2023-03-01T17:56:27.438Z,77.44
2023-03-01T17:58:55.394Z,79.79
2023-03-01T18:01:24.029Z,81.14
2023-03-01T18:03:53.372Z,82.93
2023-03-01T18:06:23.424Z,84.27
2023-03-01T18:08:51.159Z,85.77
2023-03-01T18:11:20.090Z,88.64
2023-03-01T18:13:48.133Z,91.40
2023-03-01T18:16:18.031Z,94.15
2023-03-01T18:18:46.000Z,95.92
2023-03-01T18:21:14.310Z,96.85
2023-03-01T18:23:42.179Z,96.27
2023-03-01T18:26:13.321Z,95.08
2023-03-01T18:28:41.072Z,93.61
2023-03-01T18:31:13.174Z,93.21
2023-03-01T18:33:41.255Z,91.79
2023-03-01T18:36:19.059Z,91.47
2023-03-01T18:38:47.261Z,88.78
2023-03-01T18:41:15.136Z,84.49
2023-03-01T18:43:42.698Z,81.85
2023-03-01T18:46:10.803Z,80.30
2023-03-01T18:48:39.101Z,77.77
2023-03-01T18:51:16.859Z,80.78
2023-03-01T18:53:44.921Z,79.88
2023-03-01T18:56:13.563Z,83.31
2023-03-01T18:58:43.370Z,85.89
2023-03-01T19:01:19.305Z,86.81
2023-03-01T19:03:47.660Z,85.32
2023-03-01T19:06:16.728Z,84.08
2023-03-01T19:11:46.531Z,81.07
2023-03-01T19:14:14.787Z,79.77
2023-03-01T19:17:17.611Z,80.60
2023-03-01T19:19:52.263Z,75.87
2023-03-01T19:22:19.850Z,75.49
2023-03-01T19:24:47.424Z,76.94
2023-03-01T19:27:15.210Z,78.30
2023-03-01T19:29:42.947Z,78.63
2023-03-01T19:32:10.831Z,78.77
2023-03-01T19:34:40.950Z,76.31
2023-03-01T19:37:10.048Z,74.75
2023-03-01T19:39:38.730Z,73.71
2023-03-01T19:42:06.869Z,72.72
2023-03-01T19:44:34.571Z,73.57
2023-03-01T19:47:02.386Z,73.38
2023-03-01T19:49:30.569Z,71.97
2023-03-01T19:51:58.176Z,70.42
2023-03-01T19:54:28.740Z,70.77
2023-03-01T19:56:56.465Z,70.15
2023-03-01T19:59:28.085Z,68.83
2023-03-01T20:01:56.432Z,68.46
2023-03-01T20:04:30.859Z,68.25
2023-03-01T20:06:58.709Z,67.84
2023-03-01T20:09:26.383Z,66.48
2023-03-01T20:11:54.005Z,66.17
2023-03-01T20:14:23.899Z,66.80
2023-03-01T20:16:52.900Z,66.35
2023-03-01T20:19:22.099Z,65.74
2023-03-01T20:21:50.138Z,67.59
2023-03-01T20:24:18.986Z,69.07
2023-03-01T20:26:46.785Z,69.65
2023-03-01T20:29:14.490Z,69.55
2023-03-01T20:31:42.940Z,74.42
2023-03-01T20:34:10.757Z,77.86
2023-03-01T20:36:39.660Z,81.24
2023-03-01T20:39:07.899Z,83.02
2023-03-01T20:41:35.587Z,84.44
2023-03-01T20:44:04.746Z,85.15
2023-03-01T20:46:34.305Z,85.25
2023-03-01T20:49:02.932Z,82.83
2023-03-01T20:51:31.067Z,75.50
2023-03-01T20:53:58.740Z,71.54
2023-03-01T20:56:27.506Z,69.21
2023-03-01T20:59:05.423Z,69.43
2023-03-01T21:01:33.115Z,70.35
2023-03-01T21:04:00.845Z,70.77
2023-03-01T21:06:29.177Z,70.77
2023-03-01T21:08:56.940Z,72.45
2023-03-01T21:11:27.922Z,73.14
2023-03-01T21:13:56.721Z,73.47
2023-03-01T21:16:25.283Z,73.18
2023-03-01T21:18:53.692Z,73.29
2023-03-01T21:21:23.527Z,75.28
2023-03-01T21:23:51.293Z,75.07
2023-03-01T21:26:26.940Z,77.44
2023-03-01T21:29:01.646Z,74.10
2023-03-01T21:31:35.422Z,73.15
2023-03-01T21:34:07.427Z,74.37
2023-03-01T21:36:36.388Z,70.37
2023-03-01T21:39:06.181Z,70.36
2023-03-01T21:41:36.587Z,69.66
2023-03-01T21:44:06.443Z,66.47
2023-03-01T21:46:37.196Z,67.58
2023-03-01T21:49:05.338Z,67.19
2023-03-01T21:51:33.384Z,66.89
2023-03-01T21:54:04.087Z,65.37
2023-03-01T21:56:35.369Z,64.79
2023-03-01T21:59:03.047Z,62.81
2023-03-01T22:01:31.096Z,62.78
2023-03-01T22:04:00.929Z,62.58
2023-03-01T22:06:35.385Z,60.47
2023-03-01T22:09:09.014Z,61.31
2023-03-01T22:11:39.775Z,60.06
2023-03-01T22:14:08.527Z,59.54
2023-03-01T22:16:37.535Z,58.45
2023-03-01T22:19:07.375Z,58.68
2023-03-01T22:21:36.302Z,58.25
2023-03-01T22:24:04.465Z,56.71
2023-03-01T22:26:35.224Z,56.40
2023-03-01T22:29:06.944Z,56.04
2023-03-01T22:31:35.032Z,55.81
2023-03-01T22:34:03.127Z,56.17
2023-03-01T22:36:31.474Z,56.79
2023-03-01T22:39:02.515Z,56.37
2023-03-01T22:41:32.210Z,56.84
2023-03-01T22:43:59.735Z,55.65
2023-03-01T22:46:28.540Z,55.52
2023-03-01T22:48:56.934Z,54.49
2023-03-01T22:51:30.332Z,54.70
2023-03-01T22:53:58.359Z,54.81
2023-03-01T22:56:32.321Z,54.43
2023-03-01T22:59:03.001Z,54.32
2023-03-01T23:01:31.178Z,54.04
2023-03-01T23:03:59.553Z,54.15
2023-03-01T23:06:31.039Z,52.79
2023-03-01T23:09:01.597Z,52.80
2023-03-01T23:11:29.824Z,53.09
2023-03-01T23:13:59.247Z,53.81
2023-03-01T23:16:27.210Z,52.91
2023-03-01T23:18:56.314Z,52.81
2023-03-01T23:21:23.793Z,52.94
2023-03-01T23:23:51.846Z,53.52
2023-03-01T23:26:22.571Z,52.64
2023-03-01T23:28:51.176Z,52.24
2023-03-01T23:31:19.603Z,51.92
2023-03-01T23:33:47.507Z,52.26
2023-03-01T23:36:21.284Z,52.89
2023-03-01T23:38:50.430Z,54.33
2023-03-01T23:41:20.633Z,53.68
2023-03-01T23:43:50.655Z,53.81
2023-03-01T23:46:19.947Z,54.78
2023-03-01T23:48:48.831Z,55.36
2023-03-01T23:51:20.949Z,55.22
2023-03-01T23:53:57.901Z,53.84
2023-03-01T23:56:28.567Z,53.31
2023-03-01T23:58:57.877Z,52.92
